Boise, ID (83705)

6:51 AM MDT on August 27, 2014 (GMT -0600)
Pier Point | Change Station
CLOSE
Current Station
Personal Weather Station
Location: Boise, ID
Elevation: 2760 ft
Nearby Weather Stations

Elev 2760 ft 43.58 °N, 116.16 °W | Updated 13 minutes ago

Clear
Clear
57.7 °F
Feels Like 57.7 °F
N
1.0
Wind Variable Wind from ESE
Gusts 1.0 mph

Today
High -- | Low -- °F
--% Chance of Precip.
Yesterday
High -- | Low -- °F
Precip. -- in
7:03 AM 8:28 PM
Waxing Crescent, 3% visible
Pressure 30.03 in
Visibility 10.0 miles
Clouds Clear
Dew Point 49 °F
Humidity 73%
Rainfall 0.00 in
Snow Depth 0 in
UV 0 out of 12
Pollen 7.70 out of 12
PM2.5 Good
Flu Activity Not available.
METAR KBOI 271153Z 13007KT 10SM CLR 17/08 A3010 RMK AO2 SLP169 T01670078 10200 20167 51009 $

More Conditions Fewer Conditions

Pressure 30.03 in
Visibility 10.0 miles
Clouds Clear
Dew Point 49 °F
Humidity 73%
Rainfall 0.00 in
Snow Depth 0 in
UV 0 out of 12
Pollen 7.70 out of 12
PM2.5 Good
Flu Activity Not available.
METAR KBOI 271153Z 13007KT 10SM CLR 17/08 A3010 RMK AO2 SLP169 T01670078 10200 20167 51009 $

More Conditions Fewer Conditions

10-Day Weather Forecast

Almanac

Astronomy

Aug. 27, 2014 Rise Set
Actual Time 7:03 AM MDT 8:28 PM MDT
Civil Twilight 6:33 AM MDT 8:58 PM MDT
Nautical Twilight 5:57 AM MDT 9:34 PM MDT
Astronomical Twilight 5:18 AM MDT 10:12 PM MDT
Moon 9:08 AM MDT 9:17 PM MDT
Length of Visible Light 14h 25m
Length of Day
13h 25m
Tomorrow will be 2m 50s shorter.
Waxing Crescent, 3% of the Moon is Illuminated
Today
Waxing Crescent
Sep 2
First Quarter
Sep 8
Full
Sep 15
Last Quarter
Sep 24
New

Today's Extremes

State Highs State Lows

Community

WunderPhotos

Upload Photos

1,747,676 photos uploaded!

Nearby

Air Quality

  Air Quality AQ Index Pollutant
Yesterday Moderate
OZONE
Yesterday Good
PM10
Current Good
PM2.5
Wednesday Moderate
OZONE
Thursday Moderate
OZONE

Snow Depth

Station Depth Elevation
Bogus Basin 0 in 6340 ft
Trinity Mountain 1 in 7770 ft
Camas Creek Divide 0 in 5710 ft
Jackson Peak 1 in 7070 ft
Atlanta Summit 0 in 7580 ft

Earthquake Activity

City Distance Mag. Time & Date
No recent earthquake activity has been reported nearby.
Minimum magnitude displayed is 2.5.

Coastal Water Temperatures

Place Temperature
No Stations Reporting

Nearby Weather Stations